METAR Data
IDs: Format: Raw Decoded Include TAF

Data at: 2054 UTC 19 May 2019

PAKH 191956Z AUTO 12008KT 10SM OVC035 10/06 A2953 RMK AO2 RAB13E30 SLP999 P0000 T01000056 $
PAKH 191856Z AUTO 03008KT 10SM OVC033 11/04 A2952 RMK AO2 SLP997 T01060044 $
PAKH 191756Z AUTO 01009KT 10SM SCT033 BKN045 BKN090 09/04 A2952 RMK AO2 SLP998 60000 T00940044 10094 20061 56006 $
PAKH 191656Z AUTO 03007KT 10SM SCT033 OVC044 08/04 A2953 RMK AO2 SLP001 T00830044 $
PAKH 191556Z AUTO 02010KT 10SM BKN037 OVC045 08/04 A2953 RMK AO2 RAB30E42 SLP001 P0000 T00780039 $
PAKH 191456Z AUTO 02007KT 10SM OVC033 07/04 A2954 RMK AO2 SLP005 60000 T00720039 56017 $
PAKH 191356Z AUTO 02003KT 10SM OVC037 06/04 A2955 RMK AO2 SLP009 T00610039 $
PAKH 191256Z AUTO 03004KT 10SM BKN043 OVC100 07/04 A2957 RMK AO2 RAB17E36 SLP015 P0000 T00670039 $
PAKH 191156Z AUTO 32009KT 10SM OVC055 07/03 A2959 RMK AO2 SLP021 60000 70007 T00720033 10078 20044 58025 $
PAKH 191056Z AUTO 32009KT 10SM OVC050 07/03 A2962 RMK AO2 RAB16E48 SLP030 P0000 T00720033 $
PAKH 190956Z AUTO 00000KT 10SM OVC060 06/03 A2964 RMK AO2 SLP039 T00560033 $
PAKH 190856Z AUTO 00000KT 10SM FEW110 05/03 A2967 RMK AO2 SLP047 60000 T00500028 401060050 58014 $
PAKH 190756Z AUTO 00000KT 10SM CLR 05/03 A2968 RMK AO2 RAE07 SLP052 P0000 T00500033 $
PAKH 190656Z AUTO 01004KT 10SM -RA BKN032 OVC043 07/04 A2970 RMK AO2 RAE12B42 SLP057 P0000 T00720039 $
PAKH 190628Z AUTO 33006KT 10SM FEW029 BKN043 OVC075 07/03 A2970 RMK AO2 RAE12 P0000 $
PAKH 190556Z AUTO 30004KT 10SM -RA OVC029 08/04 A2971 RMK AO2 RAB50 SLP060 P0000 60005 T00780039 10106 20072 56011 $
PAKH 190549Z AUTO 34006KT 10SM BKN029 OVC033 08/03 A2971 RMK AO2 $
PAKH 190456Z AUTO 31009KT 10SM SCT024 OVC085 08/04 A2971 RMK AO2 SLP063 T00780039 $
PAKH 190444Z AUTO 33007KT 10SM SCT024 BKN065 OVC085 08/04 A2972 RMK AO2 $
PAKH 190435Z AUTO 32007KT 10SM BKN024 BKN032 OVC065 08/04 A2972 RMK AO2 $
PAKH 190356Z AUTO 29003KT 10SM BKN050 OVC075 08/04 A2972 RMK AO2 SLP067 T00830039 $
PAKH 190256Z AUTO 00000KT 10SM BKN033 BKN046 OVC055 08/04 A2974 RMK AO2 RAE54 SLP071 P0003 60005 T00780039 56002 $
PAKH 190156Z AUTO 02005KT 10SM -RA SCT036 BKN050 OVC060 09/04 A2974 RMK AO2 RAB0058 SLP071 P0002 T00890039 $
PAKH 190056Z AUTO 07006KT 10SM BKN060 BKN080 11/04 A2974 RMK AO2 SLP073 T01060039 $
PAKH 182356Z AUTO 02004KT 10SM SCT040 BKN070 OVC080 09/03 A2974 RMK AO2 RAB21E44 SLP074 P0000 60002 T00890033 10094 20067 58001 $
PAKH 182256Z AUTO 00000KT 10SM FEW033 BKN041 OVC060 08/04 A2975 RMK AO2 RAB18E48 SLP075 P0001 T00830044 $
PAKH 182156Z AUTO 09007KT 10SM BKN060 OVC080 09/04 A2975 RMK AO2 RAE18 SLP074 P0000 T00890039 $
PAKH 182056Z AUTO 10015G21KT 10SM -RA SCT030 BKN039 OVC047 08/04 A2975 RMK AO2 RAB46 SLP075 P0000 60001 T00780044 51005 $
PAKH 181956Z AUTO 09005KT 10SM OVC060 09/04 A2974 RMK AO2 RAE17 SLP072 P0001 T00890044 $
PAKH 181856Z AUTO 10008KT 10SM -RA SCT029 BKN034 OVC055 07/04 A2974 RMK AO2 RAB17E30B48 SLP073 P0000 T00670039 $
PAKH 181756Z AUTO 09006KT 10SM BKN033 OVC039 07/04 A2973 RMK AO2 SLP070 T00720044 10072 20050 53005 $
PAKH 181656Z AUTO 02005KT 10SM FEW033 OVC060 07/05 A2973 RMK AO2 SLP068 T00670050 $
PAKH 181556Z AUTO 03007KT 10SM OVC055 07/06 A2972 RMK AO2 SLP066 T00670056 $
PAKH 181456Z AUTO 04005KT 10SM OVC060 06/05 A2972 RMK AO2 SLP065 T00610050 51004 $
PAKH 181356Z AUTO 02004KT 10SM FEW030 OVC055 06/04 A2972 RMK AO2 SLP065 T00560039 $
PAKH 181335Z AUTO 03005KT 10SM SCT028 OVC060 06/04 A2972 RMK AO2 $
PAKH 181328Z AUTO 02004KT 10SM BKN028 OVC060 06/04 A2972 RMK AO2 $
PAKH 181256Z AUTO 01003KT 10SM OVC055 06/04 A2971 RMK AO2 SLP063 T00560044 $
PAKH 181156Z AUTO 00000KT 10SM BKN032 OVC047 06/04 A2971 RMK AO2 RAE38 SLP061 P0001 60011 70014 T00560039 10078 20056 50000 $
PAKH 181104Z AUTO 00000KT 10SM -RA SCT024 BKN033 OVC041 06/05 A2971 RMK AO2 P0000 $
PAKH 181056Z AUTO 35003KT 10SM -RA BKN024 OVC031 06/05 A2971 RMK AO2 RAE10B53 SLP062 P0000 T00560050 $
PAKH 181020Z AUTO 00000KT 10SM BKN024 OVC035 06/04 A2971 RMK AO2 RAE10 P0000 $
PAKH 181011Z AUTO 00000KT 10SM SCT026 OVC035 06/04 A2971 RMK AO2 RAE10 P0000 $
PAKH 180956Z AUTO 00000KT 10SM -RA BKN026 BKN031 OVC040 06/05 A2971 RMK AO2 SLP061 P0004 T00610050 $
PAKH 180936Z AUTO 00000KT 10SM -RA SCT025 BKN033 OVC040 06/05 A2971 RMK AO2 P0003 $
PAKH 180856Z AUTO 00000KT 7SM -RA OVC020 06/05 A2971 RMK AO2 SLP061 P0006 60006 T00610050 400940044 51012 $